PWSweather.com
Personal Weather Stations
Station Observations
WISCHPK61
Green Bay Schmitt Park, Green Bay, WI 54311

Green Bay Schmitt ParkGreen Bay, WI 54311

Lat: 44.514277, Lon: -87.935067

Elevation: 735

Station Type: Acu Rite Pro Weather Center model 02032C

http://greenbayweathercam.com

High Low Average
Temperature 81.1°F27.3°C 49.6°F9.8°C 63.5°F17.5°C
Dew Point 80.8°F27.1°C 45.0°F7.2°C 59.4°F15.2°C
Winds 4.6 mph 7.4 kmh Calm Calm 1.0 mph S1.6 kmh S
Wind Gusts 4.6 mph7.4 kmh -- 1.0 mph1.6 kmh
Humidity 99% 62% 87%
Pressure 29.36 in994.2 mb 29.11 in985.8 mb -
Precipitation 0.08 in2.0 mm - -
Hour Temp Dew Point Humidity Winds Wind Gusts Pressure Precip Precip Rate Daily Precip Total
12:00 AM 60.4°F15.8°C 49.4°F9.7°C 67% Calm Calm -- 29.13 in986.5 mb - 0.03 in0.8 mm 0.03 in0.8 mm
01:00 AM 59.7°F15.4°C 48.3°F9.1°C 66% Calm Calm -- 29.11 in985.8 mb - 0.04 in1.0 mm 0.07 in1.8 mm
02:00 AM 59.4°F15.2°C 48.0°F8.9°C 66% Calm Calm -- 29.15 in987.1 mb - 0.00 in0.0 mm 0.07 in1.8 mm
03:00 AM 59.2°F15.1°C 47.8°F8.8°C 66% Calm Calm -- 29.15 in987.1 mb - 0.00 in0.0 mm 0.07 in1.8 mm
04:00 AM 58.6°F14.8°C 47.3°F8.5°C 66% Calm Calm -- 29.16 in987.5 mb - 0.01 in0.3 mm 0.08 in2.0 mm
05:00 AM 58.5°F14.7°C 46.8°F8.2°C 65% Calm Calm 2.3 mph3.7 kmh 29.17 in987.8 mb - 0.00 in0.0 mm 0.08 in2.0 mm
06:00 AM 58.3°F14.6°C 46.6°F8.1°C 65% Calm Calm -- 29.21 in989.2 mb - 0.00 in0.0 mm 0.08 in2.0 mm
07:00 AM 57.9°F14.4°C 45.0°F7.2°C 62% Calm Calm -- 29.25 in990.5 mb - 0.00 in0.0 mm 0.08 in2.0 mm
08:00 AM 64.0°F17.8°C 61.9°F16.6°C 93% 4.6 mph ESE7.4 kmh ESE 4.6 mph7.4 kmh 29.29 in991.9 mb - 0.00 in0.0 mm 0.08 in2.0 mm
09:00 AM 67.1°F19.5°C 66.8°F19.3°C 99% 2.3 mph ESE3.7 kmh ESE 2.3 mph3.7 kmh 29.31 in992.6 mb - 0.00 in0.0 mm 0.08 in2.0 mm
10:00 AM 68.9°F20.5°C 68.6°F20.3°C 99% 2.3 mph ESE3.7 kmh ESE 3.5 mph5.6 kmh 29.33 in993.2 mb - 0.00 in0.0 mm 0.08 in2.0 mm
11:00 AM 73.4°F23.0°C 73.1°F22.8°C 99% 1.2 mph NNE1.9 kmh NNE 1.2 mph1.9 kmh 29.36 in994.2 mb - 0.00 in0.0 mm 0.08 in2.0 mm
12:00 PM 77.2°F25.1°C 76.9°F24.9°C 99% 4.6 mph SSE7.4 kmh SSE 4.6 mph7.4 kmh 29.36 in994.2 mb - 0.00 in0.0 mm 0.08 in2.0 mm
01:00 PM 81.1°F27.3°C 80.8°F27.1°C 99% Calm Calm -- 29.36 in994.2 mb - 0.00 in0.0 mm 0.08 in2.0 mm
02:00 PM 78.7°F25.9°C 77.7°F25.4°C 97% 4.6 mph SW7.4 kmh SW 4.6 mph7.4 kmh 29.34 in993.6 mb - 0.00 in0.0 mm 0.08 in2.0 mm
03:00 PM 73.2°F22.9°C 72.9°F22.7°C 99% 2.3 mph NW3.7 kmh NW 2.3 mph3.7 kmh 29.33 in993.2 mb - 0.00 in0.0 mm 0.08 in2.0 mm
04:00 PM 69.6°F20.9°C 69.3°F20.7°C 99% Calm Calm -- 29.34 in993.6 mb - 0.00 in0.0 mm 0.08 in2.0 mm
05:00 PM 67.6°F19.8°C 67.3°F19.6°C 99% Calm Calm -- 29.33 in993.2 mb - 0.00 in0.0 mm 0.08 in2.0 mm
06:00 PM 63.9°F17.7°C 63.6°F17.6°C 99% 1.2 mph SSW1.9 kmh SSW -- 29.33 in993.2 mb - 0.00 in0.0 mm 0.08 in2.0 mm
07:00 PM 58.3°F14.6°C 58.0°F14.4°C 99% Calm Calm -- 29.32 in992.9 mb - 0.00 in0.0 mm 0.08 in2.0 mm
08:00 PM 55.3°F12.9°C 55.1°F12.8°C 99% Calm Calm -- 29.32 in992.9 mb - 0.00 in0.0 mm 0.08 in2.0 mm
09:00 PM 53.2°F11.8°C 52.9°F11.6°C 99% Calm Calm -- 29.33 in993.2 mb - 0.00 in0.0 mm 0.08 in2.0 mm
10:00 PM 51.6°F10.9°C 51.3°F10.7°C 99% Calm Calm -- 29.32 in992.9 mb - 0.00 in0.0 mm 0.08 in2.0 mm
11:00 PM 49.6°F9.8°C 49.3°F9.6°C 99% Calm Calm -- 29.32 in992.9 mb - 0.00 in0.0 mm 0.08 in2.0 mm